Time;durP1;ratioP1;P1;durP2;ratioP2;P2;SDS_P1;SDS_P2;PMS_P1;PMS_P2;Temp;Humidity;BMP_temperature;BMP_pressure;BME280_temperature;BME280_humidity;BME280_pressure;Samples;Min_cycle;Max_cycle;Signal;HPM_P1;HPM_P2
2022/04/27 00:01:37;;;;;;;3.60;1.98;;;;;;;;;;4948977;29;20034;-76
2022/04/27 00:04:03;;;;;;;3.03;1.77;;;;;;;;;;4934462;29;20040;-75
2022/04/27 00:06:28;;;;;;;2.10;1.70;;;;;;;;;;4949268;29;20459;-75
2022/04/27 00:08:54;;;;;;;3.33;2.13;;;;;;;;;;4934332;29;20036;-75
2022/04/27 00:11:19;;;;;;;1.80;1.70;;;;;;;;;;4934519;29;20027;-75
2022/04/27 00:13:45;;;;;;;2.58;2.00;;;;;;;;;;4934521;29;20027;-75
2022/04/27 00:16:10;;;;;;;2.90;2.00;;;;;;;;;;4948840;29;20032;-75
2022/04/27 00:18:36;;;;;;;2.75;2.15;;;;;;;;;;4933088;29;20423;-75
2022/04/27 00:21:01;;;;;;;2.08;1.90;;;;;;;;;;4932951;29;20063;-75
2022/04/27 00:23:26;;;;;;;2.28;2.08;;;;;;;;;;4948550;29;20126;-75
2022/04/27 00:25:52;;;;;;;5.18;2.20;;;;;;;;;;4948841;29;20031;-75
2022/04/27 00:28:17;;;;;;;2.45;1.80;;;;;;;;;;4948859;29;20046;-75
2022/04/27 00:30:43;;;;;;;2.42;1.88;;;;;;;;;;4934063;29;20028;-75
2022/04/27 00:33:10;;;;;;;2.15;1.67;;;;;;;;;;4948608;29;20032;-75
2022/04/27 00:35:36;;;;;;;2.20;1.70;;;;;;;;;;4932736;29;20039;-75
2022/04/27 00:38:02;;;;;;;2.65;1.83;;;;;;;;;;4950901;28;20040;-75
2022/04/27 00:40:27;;;;;;;2.70;2.03;;;;;;;;;;4952292;29;20043;-75
2022/04/27 00:42:52;;;;;;;2.55;1.73;;;;;;;;;;4952489;29;20032;-75
2022/04/27 00:45:18;;;;;;;6.10;2.17;;;;;;;;;;4937890;29;20031;-75
2022/04/27 00:47:43;;;;;;;4.13;1.80;;;;;;;;;;4952324;29;20367;-75
2022/04/27 00:50:09;;;;;;;3.20;2.10;;;;;;;;;;4937520;29;20166;-75
2022/04/27 00:52:35;;;;;;;2.50;1.73;;;;;;;;;;4937859;29;20114;-75
2022/04/27 00:55:01;;;;;;;2.13;1.90;;;;;;;;;;4936842;29;20052;-75
2022/04/27 00:57:27;;;;;;;2.72;1.70;;;;;;;;;;4936179;29;20358;-75
2022/04/27 00:59:53;;;;;;;1.90;1.63;;;;;;;;;;4937561;29;20035;-76
2022/04/27 01:02:19;;;;;;;2.17;1.98;;;;;;;;;;4888988;29;20479;-75
2022/04/27 01:04:44;;;;;;;1.90;1.60;;;;;;;;;;4952244;29;20055;-75
2022/04/27 01:07:11;;;;;;;2.65;1.70;;;;;;;;;;4952288;29;20131;-75
2022/04/27 01:09:37;;;;;;;2.53;1.83;;;;;;;;;;4935987;29;20043;-75
2022/04/27 01:12:03;;;;;;;2.10;1.80;;;;;;;;;;4951774;29;20027;-75
2022/04/27 01:14:48;;;;;;;2.45;2.15;;;;;;;;;;4951717;29;20032;-75
2022/04/27 01:17:14;;;;;;;2.85;1.98;;;;;;;;;;4937477;29;20107;-75
2022/04/27 01:19:39;;;;;;;1.50;1.40;;;;;;;;;;4937262;29;20119;-75
2022/04/27 01:22:05;;;;;;;3.55;1.80;;;;;;;;;;4937112;29;20035;-76
2022/04/27 01:24:30;;;;;;;2.67;1.73;;;;;;;;;;4951760;29;20478;-75
2022/04/27 01:26:56;;;;;;;2.88;2.00;;;;;;;;;;4937036;29;20032;-75
2022/04/27 01:29:22;;;;;;;1.83;1.73;;;;;;;;;;4935512;29;20119;-75
2022/04/27 01:31:49;;;;;;;2.40;1.85;;;;;;;;;;4935608;29;20044;-76
2022/04/27 01:34:14;;;;;;;2.17;1.70;;;;;;;;;;4937195;29;20123;-76
2022/04/27 01:36:39;;;;;;;2.10;1.80;;;;;;;;;;4951917;29;20056;-76
2022/04/27 01:39:05;;;;;;;2.33;2.03;;;;;;;;;;4951376;29;20142;-76
2022/04/27 01:41:31;;;;;;;2.50;1.83;;;;;;;;;;4935231;29;20430;-76
2022/04/27 01:43:59;;;;;;;1.63;1.52;;;;;;;;;;4936810;29;20107;-76
2022/04/27 01:46:26;;;;;;;1.88;1.33;;;;;;;;;;4936882;29;20047;-75
2022/04/27 01:48:51;;;;;;;2.20;1.80;;;;;;;;;;4934305;29;20035;-75
2022/04/27 01:51:18;;;;;;;1.70;1.60;;;;;;;;;;4950982;29;20452;-75
2022/04/27 01:56:28;;;;;;;2.13;1.65;;;;;;;;;;4949077;29;20074;-75
2022/04/27 01:58:54;;;;;;;1.77;1.55;;;;;;;;;;4936429;29;20047;-75
2022/04/27 02:01:21;;;;;;;2.58;1.60;;;;;;;;;;4951138;29;20604;-75
2022/04/27 02:03:47;;;;;;;1.67;1.50;;;;;;;;;;4935140;29;20074;-75
2022/04/27 02:06:14;;;;;;;2.25;1.40;;;;;;;;;;4934926;29;20028;-75
2022/04/27 02:08:39;;;;;;;1.67;1.58;;;;;;;;;;4950884;29;20228;-75
2022/04/27 02:11:05;;;;;;;3.13;1.60;;;;;;;;;;4950756;29;20244;-75
2022/04/27 02:13:30;;;;;;;2.25;1.92;;;;;;;;;;4950773;29;20031;-75
2022/04/27 02:15:55;;;;;;;2.03;1.63;;;;;;;;;;4950833;29;20031;-75
2022/04/27 02:18:21;;;;;;;3.45;1.75;;;;;;;;;;4934430;29;20071;-75
2022/04/27 02:20:46;;;;;;;2.70;1.60;;;;;;;;;;4949772;29;20039;-74
2022/04/27 02:23:12;;;;;;;1.50;1.40;;;;;;;;;;4950659;29;20027;-75
2022/04/27 02:25:37;;;;;;;1.60;1.50;;;;;;;;;;4950508;29;20027;-75
2022/04/27 02:28:05;;;;;;;2.25;1.65;;;;;;;;;;4950610;29;20114;-76
2022/04/27 02:30:30;;;;;;;2.25;1.60;;;;;;;;;;4950482;29;20031;-77
2022/04/27 02:32:56;;;;;;;3.00;1.77;;;;;;;;;;4950746;29;20111;-76
2022/04/27 02:35:21;;;;;;;1.73;1.50;;;;;;;;;;4934814;29;20031;-76
2022/04/27 02:37:47;;;;;;;1.50;1.40;;;;;;;;;;4934472;29;20124;-75
2022/04/27 02:40:12;;;;;;;2.53;1.75;;;;;;;;;;4950605;29;20463;-75
2022/04/27 02:42:38;;;;;;;2.55;1.95;;;;;;;;;;4934601;29;20028;-75
2022/04/27 02:45:04;;;;;;;1.70;1.60;;;;;;;;;;4935934;29;20038;-75
2022/04/27 02:47:30;;;;;;;1.88;1.52;;;;;;;;;;4935622;29;20059;-76
2022/04/27 02:52:40;;;;;;;1.83;1.55;;;;;;;;;;4935841;29;20087;-76
2022/04/27 02:55:06;;;;;;;5.38;2.03;;;;;;;;;;4950350;29;20051;-75
2022/04/27 02:57:31;;;;;;;2.45;1.65;;;;;;;;;;4934131;29;20427;-75
2022/04/27 02:59:56;;;;;;;1.88;1.58;;;;;;;;;;4949887;28;20059;-75
2022/04/27 03:02:22;;;;;;;1.90;1.70;;;;;;;;;;4935432;29;20595;-75
2022/04/27 03:04:47;;;;;;;1.58;1.48;;;;;;;;;;4949974;29;20082;-77
2022/04/27 03:07:12;;;;;;;2.60;1.70;;;;;;;;;;4934505;29;20099;-76
2022/04/27 03:09:38;;;;;;;1.95;1.58;;;;;;;;;;4949859;29;20501;-77
2022/04/27 03:12:04;;;;;;;1.95;1.60;;;;;;;;;;4950159;28;20352;-76
2022/04/27 03:14:29;;;;;;;3.83;1.60;;;;;;;;;;4949970;29;20035;-76
2022/04/27 03:16:55;;;;;;;2.05;1.73;;;;;;;;;;4949705;29;20045;-75
2022/04/27 03:19:21;;;;;;;1.50;1.40;;;;;;;;;;4918083;29;20039;-75
2022/04/27 03:21:47;;;;;;;2.00;1.42;;;;;;;;;;4933738;29;20032;-75
2022/04/27 03:24:12;;;;;;;2.53;1.70;;;;;;;;;;4933676;29;20028;-75
2022/04/27 03:26:38;;;;;;;3.90;1.70;;;;;;;;;;4934984;29;20028;-75
2022/04/27 03:29:03;;;;;;;1.50;1.30;;;;;;;;;;4935287;29;20039;-76
2022/04/27 03:31:29;;;;;;;2.00;1.70;;;;;;;;;;4933667;29;20051;-76
2022/04/27 03:33:55;;;;;;;2.25;1.60;;;;;;;;;;4917640;29;20034;-76
2022/04/27 03:36:20;;;;;;;1.80;1.50;;;;;;;;;;4934190;29;20051;-76
2022/04/27 03:38:48;;;;;;;1.73;1.63;;;;;;;;;;4934800;29;20091;-76
2022/04/27 03:41:14;;;;;;;6.35;2.20;;;;;;;;;;4949278;29;20032;-76
2022/04/27 03:43:40;;;;;;;2.30;2.08;;;;;;;;;;4933280;29;20546;-76
2022/04/27 03:46:05;;;;;;;1.98;1.70;;;;;;;;;;4934805;29;20114;-76
2022/04/27 03:48:31;;;;;;;2.30;1.65;;;;;;;;;;4949223;29;20054;-76
2022/04/27 03:50:56;;;;;;;2.25;1.58;;;;;;;;;;4934542;29;20059;-76
2022/04/27 03:53:21;;;;;;;2.25;1.60;;;;;;;;;;4934909;29;20032;-75
2022/04/27 03:55:47;;;;;;;3.10;1.80;;;;;;;;;;4934700;29;20479;-76
2022/04/27 03:58:12;;;;;;;2.47;1.65;;;;;;;;;;4934858;29;20386;-75
2022/04/27 04:00:37;;;;;;;2.10;1.90;;;;;;;;;;4933084;29;20039;-75
2022/04/27 04:03:04;;;;;;;1.60;1.50;;;;;;;;;;4934547;29;20044;-75
2022/04/27 04:05:30;;;;;;;1.70;1.52;;;;;;;;;;4933352;29;20123;-76
2022/04/27 04:07:56;;;;;;;1.88;1.77;;;;;;;;;;4949304;29;20403;-76
2022/04/27 04:10:21;;;;;;;2.05;1.70;;;;;;;;;;4932867;29;20035;-76
2022/04/27 04:12:47;;;;;;;2.15;1.60;;;;;;;;;;4948226;29;20027;-76
2022/04/27 04:15:13;;;;;;;1.85;1.60;;;;;;;;;;4948912;29;20032;-76
2022/04/27 04:17:42;;;;;;;3.45;1.65;;;;;;;;;;4948823;29;20044;-76
2022/04/27 04:20:08;;;;;;;2.45;1.73;;;;;;;;;;4934248;29;20038;-75
2022/04/27 04:22:33;;;;;;;1.98;1.75;;;;;;;;;;4934612;29;20047;-75
2022/04/27 04:30:27;;;;;;;2.22;1.90;;;;;;;;;;4933219;29;20046;-76
2022/04/27 04:32:52;;;;;;;1.65;1.55;;;;;;;;;;4933487;29;20043;-75
2022/04/27 04:35:17;;;;;;;2.53;1.67;;;;;;;;;;4933800;29;20400;-75
2022/04/27 04:37:43;;;;;;;2.00;1.83;;;;;;;;;;4933452;29;20067;-75
2022/04/27 04:40:09;;;;;;;2.08;1.67;;;;;;;;;;4949419;29;20054;-75
2022/04/27 04:42:35;;;;;;;1.67;1.55;;;;;;;;;;4933424;29;20126;-75
2022/04/27 04:45:01;;;;;;;3.00;2.17;;;;;;;;;;4934922;29;20114;-76
2022/04/27 04:47:26;;;;;;;3.15;1.90;;;;;;;;;;4934936;29;20027;-75
2022/04/27 04:49:52;;;;;;;2.22;1.90;;;;;;;;;;4934898;29;20402;-75
2022/04/27 04:52:17;;;;;;;4.10;2.30;;;;;;;;;;4935055;29;20130;-75
2022/04/27 04:54:43;;;;;;;1.85;1.75;;;;;;;;;;4933312;29;20466;-75
2022/04/27 04:57:08;;;;;;;3.47;1.90;;;;;;;;;;4934673;29;20067;-76
2022/04/27 04:59:33;;;;;;;3.85;2.15;;;;;;;;;;4934832;29;20032;-74
2022/04/27 05:01:59;;;;;;;3.17;2.10;;;;;;;;;;4934808;29;20074;-74
2022/04/27 05:04:24;;;;;;;2.17;1.92;;;;;;;;;;4934998;29;20028;-74
2022/04/27 05:06:49;;;;;;;2.80;1.60;;;;;;;;;;4935316;29;20396;-74
2022/04/27 05:09:15;;;;;;;2.85;1.70;;;;;;;;;;4949156;29;20036;-74
2022/04/27 05:11:40;;;;;;;10.50;2.20;;;;;;;;;;4934682;29;20051;-74
2022/04/27 05:14:05;;;;;;;4.43;1.80;;;;;;;;;;4934716;29;20047;-74
2022/04/27 05:16:33;;;;;;;17.13;2.00;;;;;;;;;;4949099;29;20103;-75
2022/04/27 05:18:59;;;;;;;2.08;1.98;;;;;;;;;;4934631;29;20031;-75
2022/04/27 05:21:24;;;;;;;4.45;2.00;;;;;;;;;;4932735;29;20123;-75
2022/04/27 05:23:50;;;;;;;2.17;1.75;;;;;;;;;;4935802;29;20107;-75
2022/04/27 05:26:16;;;;;;;4.13;2.15;;;;;;;;;;4937666;29;20031;-75
2022/04/27 05:34:09;;;;;;;4.97;1.77;;;;;;;;;;4937860;29;20039;-74
2022/04/27 05:36:34;;;;;;;2.20;2.00;;;;;;;;;;4938250;29;20027;-74
2022/04/27 05:39:00;;;;;;;2.58;1.85;;;;;;;;;;4937492;29;20043;-76
2022/04/27 05:41:25;;;;;;;1.63;1.52;;;;;;;;;;4935783;29;20036;-75
2022/04/27 05:43:51;;;;;;;4.65;2.00;;;;;;;;;;4920022;29;20036;-76
2022/04/27 05:46:16;;;;;;;2.00;1.75;;;;;;;;;;4952062;29;20185;-76
2022/04/27 05:48:41;;;;;;;2.72;1.90;;;;;;;;;;4951512;29;20060;-76
2022/04/27 05:51:07;;;;;;;6.20;1.80;;;;;;;;;;4935880;29;20052;-76
2022/04/27 05:53:32;;;;;;;3.67;1.98;;;;;;;;;;4937088;29;20106;-76
2022/04/27 05:55:58;;;;;;;4.93;1.70;;;;;;;;;;4938002;29;20035;-76
2022/04/27 05:58:24;;;;;;;2.25;1.70;;;;;;;;;;4937639;29;20035;-75
2022/04/27 06:00:50;;;;;;;4.50;1.80;;;;;;;;;;4951197;29;20028;-75
2022/04/27 06:03:15;;;;;;;2.35;1.63;;;;;;;;;;4937206;29;20034;-75
2022/04/27 06:05:41;;;;;;;2.55;1.90;;;;;;;;;;4951527;29;20071;-75
2022/04/27 06:08:07;;;;;;;3.40;1.40;;;;;;;;;;4936821;29;20106;-75
2022/04/27 06:10:33;;;;;;;3.28;1.70;;;;;;;;;;4937659;29;20102;-75
2022/04/27 06:12:58;;;;;;;1.95;1.65;;;;;;;;;;4935996;29;20035;-75
2022/04/27 06:15:24;;;;;;;2.83;1.80;;;;;;;;;;4937454;29;20028;-75
2022/04/27 06:17:50;;;;;;;2.00;1.60;;;;;;;;;;4937379;29;20046;-76
2022/04/27 06:20:15;;;;;;;2.35;1.80;;;;;;;;;;4935785;29;20032;-76
2022/04/27 06:22:41;;;;;;;4.72;2.03;;;;;;;;;;4935933;29;20047;-76
2022/04/27 06:25:07;;;;;;;1.80;1.70;;;;;;;;;;4952491;29;20028;-76
2022/04/27 06:27:32;;;;;;;2.25;1.90;;;;;;;;;;4936451;29;20032;-76
2022/04/27 06:29:58;;;;;;;2.08;1.88;;;;;;;;;;4952169;29;20042;-74
2022/04/27 06:32:23;;;;;;;2.53;1.52;;;;;;;;;;4937353;29;20027;-75
2022/04/27 06:34:49;;;;;;;5.40;1.80;;;;;;;;;;4935616;29;20039;-76
2022/04/27 06:37:15;;;;;;;3.55;2.03;;;;;;;;;;4950797;29;20044;-75
2022/04/27 06:39:40;;;;;;;3.22;2.00;;;;;;;;;;4936246;29;20035;-73
2022/04/27 06:42:07;;;;;;;3.30;1.60;;;;;;;;;;4950699;29;20042;-76
2022/04/27 06:44:35;;;;;;;2.15;1.52;;;;;;;;;;4950780;29;20422;-74
2022/04/27 06:47:01;;;;;;;5.63;1.90;;;;;;;;;;4950698;29;20039;-74
2022/04/27 06:49:26;;;;;;;3.30;1.85;;;;;;;;;;4936322;29;20027;-75
2022/04/27 06:51:51;;;;;;;2.90;1.77;;;;;;;;;;4935946;29;20052;-75
2022/04/27 06:54:17;;;;;;;2.80;1.67;;;;;;;;;;4934655;29;20051;-75
2022/04/27 06:56:42;;;;;;;2.05;1.75;;;;;;;;;;4935931;29;20031;-75
2022/04/27 06:59:08;;;;;;;1.95;1.55;;;;;;;;;;4936086;29;20031;-75
2022/04/27 07:01:33;;;;;;;2.60;1.63;;;;;;;;;;4950850;29;20043;-76
2022/04/27 07:04:06;;;;;;;4.32;1.70;;;;;;;;;;4950221;29;20542;-76
2022/04/27 07:06:32;;;;;;;38.27;10.83;;;;;;;;;;4949402;29;20038;-77
2022/04/27 07:08:57;;;;;;;28.40;8.75;;;;;;;;;;4949942;29;20036;-77
2022/04/27 07:11:23;;;;;;;30.42;8.25;;;;;;;;;;4950126;29;20063;-77
2022/04/27 07:13:48;;;;;;;30.30;8.07;;;;;;;;;;4950274;29;20352;-77
2022/04/27 07:16:14;;;;;;;32.72;8.15;;;;;;;;;;4934441;29;20059;-77
2022/04/27 07:18:39;;;;;;;23.25;7.07;;;;;;;;;;4950736;29;20455;-76
2022/04/27 07:21:08;;;;;;;23.73;7.13;;;;;;;;;;4934001;29;20040;-76
2022/04/27 07:23:33;;;;;;;26.00;6.50;;;;;;;;;;4935950;29;20123;-77
2022/04/27 07:25:58;;;;;;;28.98;6.97;;;;;;;;;;4934198;29;20467;-77
2022/04/27 07:28:24;;;;;;;18.52;5.90;;;;;;;;;;4950015;29;20034;-77
2022/04/27 07:30:49;;;;;;;17.55;5.63;;;;;;;;;;4933777;29;20478;-77
2022/04/27 07:33:15;;;;;;;17.77;5.20;;;;;;;;;;4949831;29;20114;-77
2022/04/27 07:35:40;;;;;;;13.68;4.40;;;;;;;;;;4935025;29;20035;-76
2022/04/27 07:38:06;;;;;;;14.00;4.63;;;;;;;;;;4933334;29;20138;-77
2022/04/27 07:40:31;;;;;;;14.15;4.20;;;;;;;;;;4934931;29;20447;-79
2022/04/27 07:42:58;;;;;;;11.75;3.88;;;;;;;;;;4949686;29;20027;-77
2022/04/27 07:45:24;;;;;;;11.48;3.83;;;;;;;;;;4949563;29;20075;-77
2022/04/27 07:47:49;;;;;;;9.52;3.80;;;;;;;;;;4948755;28;20058;-77
2022/04/27 07:50:16;;;;;;;9.25;3.33;;;;;;;;;;4949066;29;20062;-77
2022/04/27 07:52:42;;;;;;;21.08;3.22;;;;;;;;;;4935057;29;20039;-75
2022/04/27 07:55:08;;;;;;;12.93;3.70;;;;;;;;;;4917515;29;20036;-76
2022/04/27 07:57:34;;;;;;;14.20;3.25;;;;;;;;;;4917350;29;20051;-75
2022/04/27 08:00:00;;;;;;;9.43;3.33;;;;;;;;;;4901703;29;20035;-76
2022/04/27 08:02:26;;;;;;;11.10;4.38;;;;;;;;;;4917473;29;20135;-76
2022/04/27 08:04:52;;;;;;;10.95;3.30;;;;;;;;;;4934608;29;20475;-77
2022/04/27 08:07:18;;;;;;;9.88;3.40;;;;;;;;;;4917401;29;20039;-76
2022/04/27 08:09:43;;;;;;;8.25;2.88;;;;;;;;;;4917496;29;20036;-76
2022/04/27 08:12:09;;;;;;;10.23;2.85;;;;;;;;;;4917344;29;20467;-78
2022/04/27 08:14:36;;;;;;;7.60;2.70;;;;;;;;;;4917512;29;20086;-76
2022/04/27 08:17:02;;;;;;;10.93;2.60;;;;;;;;;;4933175;29;20028;-76
2022/04/27 08:19:28;;;;;;;7.80;2.63;;;;;;;;;;4901335;29;20024;-78
2022/04/27 08:21:54;;;;;;;8.07;2.92;;;;;;;;;;4917599;29;20038;-76
2022/04/27 08:24:21;;;;;;;19.27;3.13;;;;;;;;;;4917532;29;20122;-76
2022/04/27 08:26:47;;;;;;;8.65;3.17;;;;;;;;;;4901299;29;20031;-74
2022/04/27 08:29:12;;;;;;;9.93;2.60;;;;;;;;;;4917123;29;20034;-79
2022/04/27 08:31:37;;;;;;;7.82;2.58;;;;;;;;;;4917245;29;20035;-76
2022/04/27 08:34:03;;;;;;;9.00;2.83;;;;;;;;;;4901639;29;20510;-76
2022/04/27 08:36:28;;;;;;;11.30;2.92;;;;;;;;;;4917457;29;20044;-77
2022/04/27 08:38:54;;;;;;;5.65;2.42;;;;;;;;;;4934237;29;20032;-78
2022/04/27 08:41:19;;;;;;;16.10;2.08;;;;;;;;;;4933069;29;20121;-79
2022/04/27 08:43:45;;;;;;;14.02;2.55;;;;;;;;;;4917244;29;20047;-78
2022/04/27 08:46:12;;;;;;;8.35;2.90;;;;;;;;;;4934512;29;20023;-77
2022/04/27 08:48:38;;;;;;;6.75;2.13;;;;;;;;;;4934598;29;20044;-78
2022/04/27 08:51:04;;;;;;;16.50;2.25;;;;;;;;;;4935958;29;20063;-78
2022/04/27 08:53:30;;;;;;;9.00;2.22;;;;;;;;;;4949603;29;20046;-77
2022/04/27 08:55:56;;;;;;;5.80;2.33;;;;;;;;;;4933413;29;20051;-77
2022/04/27 08:58:23;;;;;;;9.65;2.17;;;;;;;;;;4950047;28;20398;-78
2022/04/27 09:00:48;;;;;;;15.10;2.50;;;;;;;;;;4938575;29;20045;-81
2022/04/27 09:03:34;;;;;;;11.48;2.05;;;;;;;;;;4936821;29;20495;-79
2022/04/27 09:06:04;;;;;;;7.07;1.80;;;;;;;;;;4920780;29;20044;-78
2022/04/27 09:08:40;;;;;;;9.60;2.03;;;;;;;;;;4921253;29;20062;-78
2022/04/27 09:11:26;;;;;;;8.45;2.47;;;;;;;;;;4952527;29;20386;-77
2022/04/27 09:13:56;;;;;;;6.95;1.98;;;;;;;;;;4952771;29;20028;-77
2022/04/27 09:16:24;;;;;;;8.90;2.53;;;;;;;;;;4938073;29;20363;-78
2022/04/27 09:21:52;;;;;;;4.93;1.63;;;;;;;;;;4950514;29;20090;-78
2022/04/27 09:24:18;;;;;;;5.35;1.98;;;;;;;;;;4938094;29;20482;-77
2022/04/27 09:26:43;;;;;;;6.38;2.15;;;;;;;;;;4952420;29;20043;-77
2022/04/27 09:29:23;;;;;;;5.22;1.83;;;;;;;;;;4952585;29;20043;-77
2022/04/27 09:31:57;;;;;;;7.53;1.92;;;;;;;;;;4952099;29;20055;-77
2022/04/27 09:34:32;;;;;;;4.97;1.70;;;;;;;;;;4952420;29;20476;-79
2022/04/27 09:37:12;;;;;;;9.57;1.73;;;;;;;;;;4921677;29;20131;-79
2022/04/27 09:39:37;;;;;;;5.22;2.03;;;;;;;;;;4952064;29;20035;-77
2022/04/27 09:42:08;;;;;;;6.43;1.65;;;;;;;;;;4952118;29;20537;-77
2022/04/27 09:44:35;;;;;;;4.97;1.52;;;;;;;;;;4936238;29;20058;-78
2022/04/27 09:47:04;;;;;;;4.72;1.60;;;;;;;;;;4952237;29;20031;-78
2022/04/27 09:49:31;;;;;;;2.40;1.45;;;;;;;;;;4951792;29;20054;-78
2022/04/27 09:51:58;;;;;;;8.60;1.92;;;;;;;;;;4935544;29;20499;-78
2022/04/27 09:54:24;;;;;;;4.82;1.63;;;;;;;;;;4935659;29;20070;-77
2022/04/27 09:56:51;;;;;;;5.60;2.00;;;;;;;;;;4935624;29;20028;-78
2022/04/27 09:59:18;;;;;;;3.38;1.70;;;;;;;;;;4937092;29;20437;-78
2022/04/27 10:01:45;;;;;;;3.97;1.45;;;;;;;;;;4951515;29;20060;-77
2022/04/27 10:04:11;;;;;;;4.43;1.80;;;;;;;;;;4951241;29;20036;-79
2022/04/27 10:06:37;;;;;;;4.93;1.35;;;;;;;;;;4951914;29;20040;-79
2022/04/27 10:09:04;;;;;;;5.63;1.35;;;;;;;;;;4919278;29;20046;-79
2022/04/27 10:11:31;;;;;;;2.65;1.40;;;;;;;;;;4950451;29;20027;-78
2022/04/27 10:13:56;;;;;;;7.07;1.40;;;;;;;;;;4951237;29;20103;-78
2022/04/27 10:16:26;;;;;;;2.22;1.10;;;;;;;;;;4951506;29;20552;-78
2022/04/27 10:18:52;;;;;;;11.70;1.63;;;;;;;;;;4935889;29;20032;-78
2022/04/27 10:21:39;;;;;;;3.95;1.20;;;;;;;;;;4919155;29;20039;-79
2022/04/27 10:24:09;;;;;;;3.22;2.00;;;;;;;;;;4935159;29;20457;-80
2022/04/27 10:26:35;;;;;;;4.50;1.20;;;;;;;;;;4951497;29;20362;-79
2022/04/27 10:29:05;;;;;;;4.28;1.30;;;;;;;;;;4935063;29;20019;-79
2022/04/27 10:31:43;;;;;;;13.40;1.60;;;;;;;;;;4951014;29;20139;-79
2022/04/27 10:34:19;;;;;;;8.15;1.60;;;;;;;;;;4936650;29;20427;-79
2022/04/27 10:36:47;;;;;;;3.38;1.30;;;;;;;;;;4935183;29;20055;-77
2022/04/27 10:39:12;;;;;;;1.92;1.13;;;;;;;;;;4934923;29;20398;-78
2022/04/27 10:41:48;;;;;;;3.92;1.50;;;;;;;;;;4950720;29;20371;-78
2022/04/27 10:44:13;;;;;;;2.25;1.40;;;;;;;;;;4934941;29;20440;-79
2022/04/27 10:46:43;;;;;;;4.40;1.20;;;;;;;;;;4935381;29;20038;-78
2022/04/27 10:49:22;;;;;;;2.75;1.48;;;;;;;;;;4950823;29;20023;-79
2022/04/27 10:52:07;;;;;;;3.00;1.70;;;;;;;;;;4934310;29;20048;-78
2022/04/27 10:54:34;;;;;;;5.32;1.48;;;;;;;;;;4950440;29;20063;-78
2022/04/27 10:57:15;;;;;;;3.42;1.27;;;;;;;;;;4934873;29;20367;-79
2022/04/27 10:59:43;;;;;;;3.83;1.20;;;;;;;;;;4950665;29;20028;-80
2022/04/27 11:02:34;;;;;;;2.47;1.13;;;;;;;;;;4936094;29;20031;-78
2022/04/27 11:05:01;;;;;;;2.13;1.20;;;;;;;;;;4934620;29;20032;-78
2022/04/27 11:07:44;;;;;;;2.95;1.10;;;;;;;;;;4950928;29;20094;-77
2022/04/27 11:10:15;;;;;;;4.75;1.30;;;;;;;;;;4950781;29;20505;-78
2022/04/27 11:12:42;;;;;;;2.15;1.27;;;;;;;;;;4950803;29;20032;-78
2022/04/27 11:15:10;;;;;;;5.20;1.60;;;;;;;;;;4934732;29;20131;-79
2022/04/27 11:17:37;;;;;;;3.00;1.35;;;;;;;;;;4936249;29;20028;-79
2022/04/27 11:20:03;;;;;;;4.07;1.45;;;;;;;;;;4936372;29;20039;-81
2022/04/27 11:22:37;;;;;;;2.50;1.20;;;;;;;;;;4950167;28;20484;-80
2022/04/27 11:25:06;;;;;;;3.10;1.25;;;;;;;;;;4918928;29;20480;-81
2022/04/27 11:27:34;;;;;;;4.00;1.42;;;;;;;;;;4950317;29;20086;-82
2022/04/27 11:30:01;;;;;;;3.83;1.35;;;;;;;;;;4934511;29;20031;-81
2022/04/27 11:32:29;;;;;;;5.55;1.67;;;;;;;;;;4950183;29;20036;-82
2022/04/27 11:34:55;;;;;;;7.78;1.42;;;;;;;;;;4934474;29;20505;-81
2022/04/27 11:37:21;;;;;;;3.25;1.17;;;;;;;;;;4918297;29;20134;-81
2022/04/27 11:39:47;;;;;;;2.72;1.13;;;;;;;;;;4934095;29;20103;-81
2022/04/27 11:42:14;;;;;;;3.97;1.30;;;;;;;;;;4934192;29;20126;-81
2022/04/27 11:44:40;;;;;;;5.45;1.30;;;;;;;;;;4934539;29;20122;-81
2022/04/27 11:47:24;;;;;;;3.42;1.30;;;;;;;;;;4950166;29;20395;-81
2022/04/27 11:49:54;;;;;;;3.63;1.30;;;;;;;;;;4950091;29;20490;-81
2022/04/27 11:52:20;;;;;;;3.50;1.70;;;;;;;;;;4949393;29;20054;-80
2022/04/27 11:54:45;;;;;;;3.10;1.25;;;;;;;;;;4950032;29;20372;-82
2022/04/27 11:57:13;;;;;;;5.50;2.03;;;;;;;;;;4933748;29;20038;-81
2022/04/27 11:59:42;;;;;;;2.88;1.40;;;;;;;;;;4934132;29;20398;-81
2022/04/27 12:02:09;;;;;;;7.35;1.40;;;;;;;;;;4949477;29;20023;-81
2022/04/27 12:04:35;;;;;;;2.70;1.30;;;;;;;;;;4949509;29;20038;-82
2022/04/27 12:07:01;;;;;;;5.97;1.42;;;;;;;;;;4933667;29;20558;-82
2022/04/27 12:09:26;;;;;;;3.50;1.50;;;;;;;;;;4917668;29;20126;-80
2022/04/27 12:11:53;;;;;;;1.52;1.20;;;;;;;;;;4949690;29;20119;-80
2022/04/27 12:14:19;;;;;;;1.58;1.20;;;;;;;;;;4949616;29;20027;-80
2022/04/27 12:16:45;;;;;;;2.13;1.27;;;;;;;;;;4949284;29;20039;-81
2022/04/27 12:19:10;;;;;;;5.45;1.77;;;;;;;;;;4902116;29;20050;-81
2022/04/27 12:21:37;;;;;;;7.10;1.50;;;;;;;;;;4933529;29;20115;-81
2022/04/27 12:24:16;;;;;;;3.45;1.73;;;;;;;;;;4949608;29;20389;-80
2022/04/27 12:26:41;;;;;;;4.15;1.42;;;;;;;;;;4949358;29;20035;-80
2022/04/27 12:29:07;;;;;;;2.28;1.40;;;;;;;;;;4933291;29;20043;-82
2022/04/27 12:31:34;;;;;;;2.60;1.30;;;;;;;;;;4933464;29;20036;-82
2022/04/27 12:34:03;;;;;;;3.10;1.50;;;;;;;;;;4951167;28;20075;-82
2022/04/27 12:39:25;;;;;;;3.97;1.50;;;;;;;;;;4937640;29;20095;-82
2022/04/27 12:41:52;;;;;;;4.07;1.23;;;;;;;;;;4937465;29;20024;-82
2022/04/27 12:44:25;;;;;;;2.47;1.45;;;;;;;;;;4937496;29;20425;-82
2022/04/27 12:47:04;;;;;;;1.25;1.10;;;;;;;;;;4937521;29;20024;-82
2022/04/27 12:49:34;;;;;;;1.20;1.10;;;;;;;;;;4953364;29;20078;-82
2022/04/27 12:52:23;;;;;;;1.50;1.20;;;;;;;;;;4938186;29;20130;-82
2022/04/27 12:54:53;;;;;;;2.83;1.30;;;;;;;;;;4938716;29;20418;-82
2022/04/27 12:57:18;;;;;;;4.63;1.30;;;;;;;;;;4952664;29;20087;-82
2022/04/27 12:59:57;;;;;;;2.92;1.38;;;;;;;;;;4938416;29;20032;-82
2022/04/27 13:02:23;;;;;;;2.58;1.40;;;;;;;;;;4937953;29;20250;-82
2022/04/27 13:04:49;;;;;;;2.90;1.10;;;;;;;;;;4952687;28;20108;-82
2022/04/27 13:07:15;;;;;;;3.72;1.23;;;;;;;;;;4937026;29;20043;-82
2022/04/27 13:12:31;;;;;;;0.90;0.90;;;;;;;;;;4938486;29;20062;-82
2022/04/27 13:14:57;;;;;;;1.33;1.10;;;;;;;;;;4952420;29;20403;-81
2022/04/27 13:17:23;;;;;;;1.70;1.00;;;;;;;;;;4936696;29;20032;-84
2022/04/27 13:19:48;;;;;;;2.85;1.35;;;;;;;;;;4938096;29;20111;-82
2022/04/27 13:22:14;;;;;;;2.95;1.40;;;;;;;;;;4938323;29;20458;-82
2022/04/27 13:24:39;;;;;;;1.30;1.20;;;;;;;;;;4953017;29;20027;-82
2022/04/27 13:27:05;;;;;;;4.15;1.30;;;;;;;;;;4952475;29;20035;-82
2022/04/27 13:29:31;;;;;;;4.75;1.08;;;;;;;;;;4952392;29;20032;-82
2022/04/27 13:31:56;;;;;;;2.03;1.52;;;;;;;;;;4937897;29;20053;-81
2022/04/27 13:34:22;;;;;;;3.95;1.42;;;;;;;;;;4937726;29;20130;-81
2022/04/27 13:36:48;;;;;;;1.38;0.95;;;;;;;;;;4952397;29;20024;-80
2022/04/27 13:39:13;;;;;;;1.80;1.40;;;;;;;;;;4937627;29;20082;-82
2022/04/27 13:41:38;;;;;;;3.28;1.38;;;;;;;;;;4937629;29;20049;-81
2022/04/27 13:44:04;;;;;;;3.38;1.73;;;;;;;;;;4936550;29;20035;-81
2022/04/27 13:46:29;;;;;;;3.90;1.48;;;;;;;;;;4952456;29;20051;-81
2022/04/27 13:48:55;;;;;;;1.95;1.30;;;;;;;;;;4936174;29;20094;-82
2022/04/27 13:51:20;;;;;;;2.13;1.50;;;;;;;;;;4952718;29;20059;-83
2022/04/27 13:53:47;;;;;;;2.58;1.30;;;;;;;;;;4953468;29;20055;-82
2022/04/27 13:56:12;;;;;;;1.30;1.20;;;;;;;;;;4938102;29;20117;-82
2022/04/27 13:58:38;;;;;;;1.45;1.35;;;;;;;;;;4952802;29;20059;-83
2022/04/27 14:01:04;;;;;;;2.35;1.38;;;;;;;;;;4952023;29;20036;-83
2022/04/27 14:03:29;;;;;;;2.15;1.42;;;;;;;;;;4952100;29;20118;-82
2022/04/27 14:05:55;;;;;;;2.05;1.20;;;;;;;;;;4938148;29;20055;-82
2022/04/27 14:08:20;;;;;;;2.03;1.38;;;;;;;;;;4952461;29;20052;-82
2022/04/27 14:10:45;;;;;;;1.75;1.15;;;;;;;;;;4952332;29;20086;-82
2022/04/27 14:13:14;;;;;;;3.05;1.00;;;;;;;;;;4952807;29;20050;-82
2022/04/27 14:15:40;;;;;;;2.13;1.25;;;;;;;;;;4940671;29;20087;-82
2022/04/27 14:18:15;;;;;;;1.70;1.10;;;;;;;;;;4942962;29;20059;-82
2022/04/27 14:20:46;;;;;;;3.00;1.20;;;;;;;;;;4939094;29;20419;-81
2022/04/27 14:23:16;;;;;;;1.92;1.33;;;;;;;;;;4951963;29;20123;-82
2022/04/27 14:25:43;;;;;;;2.40;1.33;;;;;;;;;;4954045;29;20110;-82
2022/04/27 14:28:12;;;;;;;1.65;1.30;;;;;;;;;;4938273;29;20035;-81
2022/04/27 14:30:37;;;;;;;1.75;1.20;;;;;;;;;;4951323;29;20031;-82
2022/04/27 14:33:06;;;;;;;2.22;1.10;;;;;;;;;;4939393;29;20031;-82
2022/04/27 14:35:32;;;;;;;3.22;1.45;;;;;;;;;;4954701;29;20028;-83
2022/04/27 14:37:58;;;;;;;1.95;1.30;;;;;;;;;;4938359;29;20474;-82
2022/04/27 14:40:24;;;;;;;1.40;1.10;;;;;;;;;;4936707;29;20119;-81
2022/04/27 14:42:49;;;;;;;2.40;1.10;;;;;;;;;;4951332;29;20051;-82
2022/04/27 14:45:15;;;;;;;1.67;1.02;;;;;;;;;;4935274;29;20486;-82
2022/04/27 14:47:40;;;;;;;1.63;1.15;;;;;;;;;;4951039;29;20032;-82
2022/04/27 14:50:07;;;;;;;3.78;1.20;;;;;;;;;;4950923;29;20035;-83
2022/04/27 14:52:33;;;;;;;3.38;1.20;;;;;;;;;;4936423;29;20048;-82
2022/04/27 14:55:00;;;;;;;4.82;2.40;;;;;;;;;;4919179;29;20042;-82
2022/04/27 14:57:26;;;;;;;1.75;1.30;;;;;;;;;;4950378;28;20086;-82
2022/04/27 14:59:53;;;;;;;3.40;1.38;;;;;;;;;;4919349;29;20565;-82
2022/04/27 15:02:22;;;;;;;3.97;1.63;;;;;;;;;;4950763;29;20082;-81
2022/04/27 15:04:48;;;;;;;2.83;1.35;;;;;;;;;;4951260;29;20036;-83